createdAt,value
2022-12-03T20:09:12.818Z,204.70
2022-12-03T20:11:41.918Z,274.70
2022-12-03T20:14:13.765Z,231.50
2022-12-03T20:16:42.193Z,219.70
2022-12-03T20:19:16.835Z,189.30
2022-12-03T20:21:44.757Z,178.40
2022-12-03T20:24:15.043Z,169.70
2022-12-03T20:26:43.208Z,129.70
2022-12-03T20:29:10.966Z,120.10
2022-12-03T20:31:38.714Z,131.60
2022-12-03T20:34:07.137Z,123.40
2022-12-03T20:36:35.005Z,124.80
2022-12-03T20:39:05.980Z,135.70
2022-12-03T20:41:37.349Z,132.30
2022-12-03T20:44:07.435Z,126.50
2022-12-03T20:46:35.653Z,121.90
2022-12-03T20:49:04.135Z,130.50
2022-12-03T20:51:31.965Z,124.70
2022-12-03T20:54:00.650Z,111.20
2022-12-03T20:56:31.714Z,134.10
2022-12-03T20:59:00.894Z,134.00
2022-12-03T21:01:28.630Z,134.20
2022-12-03T21:03:57.469Z,126.20
2022-12-03T21:06:27.814Z,124.30
2022-12-03T21:08:57.633Z,132.90
2022-12-03T21:11:32.218Z,124.70
2022-12-03T21:17:05.874Z,126.80
2022-12-03T21:19:20.358Z,136.30
2022-12-03T21:21:48.456Z,133.90
2022-12-03T21:24:16.300Z,157.90
2022-12-03T21:26:44.991Z,155.00
2022-12-03T21:29:14.077Z,136.70
2022-12-03T21:31:41.746Z,135.40
2022-12-03T21:34:09.410Z,144.40
2022-12-03T21:36:37.054Z,143.10
2022-12-03T21:39:05.816Z,148.00
2022-12-03T21:41:35.442Z,152.20
2022-12-03T21:44:03.777Z,154.40
2022-12-03T21:47:09.671Z,143.50
2022-12-03T21:49:20.259Z,148.50
2022-12-03T21:51:48.295Z,139.80
2022-12-03T21:54:15.992Z,127.40
2022-12-03T21:56:43.583Z,146.40
2022-12-03T21:59:11.176Z,143.90
2022-12-03T22:01:44.131Z,155.20
2022-12-03T22:04:14.702Z,149.80
2022-12-03T22:06:42.353Z,143.00
2022-12-03T22:09:09.974Z,151.80
2022-12-03T22:11:37.646Z,146.20
2022-12-03T22:14:06.900Z,131.80
2022-12-03T22:16:35.264Z,134.60
2022-12-03T22:19:04.071Z,154.40
2022-12-03T22:21:31.639Z,142.50
2022-12-03T22:23:59.684Z,144.30
2022-12-03T22:26:27.304Z,155.00
2022-12-03T22:28:55.114Z,149.60
2022-12-03T22:31:22.742Z,150.80
2022-12-03T22:33:50.486Z,142.90
2022-12-03T22:36:21.555Z,135.30
2022-12-03T22:38:51.018Z,135.80
2022-12-03T22:41:19.473Z,134.50
2022-12-03T22:43:48.230Z,156.40
2022-12-03T22:46:17.300Z,131.80
2022-12-03T22:48:46.210Z,136.40
2022-12-03T22:51:19.909Z,135.70
2022-12-03T22:53:48.196Z,155.40
2022-12-03T22:56:17.196Z,141.70
2022-12-03T22:58:44.820Z,149.00
2022-12-03T23:01:21.657Z,151.60
2022-12-03T23:03:49.507Z,139.00
2022-12-03T23:06:18.360Z,134.10
2022-12-03T23:08:46.626Z,137.30
2022-12-03T23:11:15.225Z,122.20
2022-12-03T23:13:43.403Z,146.50
2022-12-03T23:16:15.583Z,146.50
2022-12-03T23:18:43.961Z,146.50
2022-12-03T23:21:25.396Z,144.00
2022-12-03T23:23:57.373Z,143.20
2022-12-03T23:26:26.196Z,148.40
2022-12-03T23:28:54.293Z,137.30
2022-12-03T23:31:26.283Z,148.70
2022-12-03T23:33:55.713Z,140.60
2022-12-03T23:36:25.051Z,145.30
2022-12-03T23:38:53.295Z,125.00
2022-12-03T23:41:23.235Z,148.70
2022-12-03T23:43:51.733Z,143.90
2022-12-03T23:46:22.590Z,155.60
2022-12-03T23:48:51.609Z,127.50
2022-12-03T23:51:22.107Z,139.20
2022-12-03T23:53:50.187Z,131.30
2022-12-03T23:56:20.796Z,123.70
2022-12-03T23:58:48.698Z,127.80
